Terminal Aerodrome Forecast
Issued by NWS Kansas City/Pleasant Hill, MO

Home | Current Version | Previous Version | Text Only | Print | Product List | Glossary On
Versions: 1 2 3 4 5 6 7 8 9 10 11 12 13
583
FTUS43 KEAX 111442 AAA
TAFMCI
TAF AMD
KMCI 111442Z 1115/1212 17008KT 6SM BR OVC025
     FM111600 22008KT 6SM -DZ BR OVC010
      TEMPO 1116/1120 5SM -DZ OVC008
     FM112000 27008KT P6SM OVC010
     FM112300 32010KT P6SM BKN045
     FM120900 33008KT P6SM SCT110=

USA.gov is the U.S. government's official web portal to all federal, state and local government web resources and services.